Time;durP1;ratioP1;P1;durP2;ratioP2;P2;SDS_P1;SDS_P2;PMS_P1;PMS_P2;Temp;Humidity;BMP_temperature;BMP_pressure;BME280_temperature;BME280_humidity;BME280_pressure;Samples;Min_cycle;Max_cycle;Signal;HPM_P1;HPM_P2
2022/10/17 00:03:28;;;;;;;87.30;82.65;;;;;;;;;;10173545;28;20054;-71
2022/10/17 00:08:24;;;;;;;94.30;89.43;;;;;;;;;;10189211;28;20044;-71
2022/10/17 00:13:20;;;;;;;98.07;93.20;;;;;;;;;;10187561;28;20546;-71
2022/10/17 00:18:16;;;;;;;93.47;88.55;;;;;;;;;;10182023;28;20046;-71
2022/10/17 00:23:13;;;;;;;101.20;96.05;;;;;;;;;;10186185;28;20061;-71
2022/10/17 00:28:10;;;;;;;102.47;97.22;;;;;;;;;;10201005;28;20042;-70
2022/10/17 00:33:06;;;;;;;102.40;96.80;;;;;;;;;;10183092;28;20047;-71
2022/10/17 00:38:02;;;;;;;106.57;100.88;;;;;;;;;;10182890;28;20053;-71
2022/10/17 00:42:59;;;;;;;106.43;100.93;;;;;;;;;;10179864;28;20081;-71
2022/10/17 00:48:07;;;;;;;106.65;100.88;;;;;;;;;;10174970;28;20053;-71
2022/10/17 00:53:04;;;;;;;106.72;101.40;;;;;;;;;;10183971;28;20046;-71
2022/10/17 00:58:01;;;;;;;107.68;101.57;;;;;;;;;;10175843;28;20052;-71
2022/10/17 01:08:10;;;;;;;110.72;104.85;;;;;;;;;;10748020;23;20043;-71
2022/10/17 01:13:12;;;;;;;107.25;101.65;;;;;;;;;;10109543;28;20048;-71
2022/10/17 01:18:27;;;;;;;106.38;100.97;;;;;;;;;;10118793;28;20050;-70
2022/10/17 01:23:47;;;;;;;107.75;102.00;;;;;;;;;;10131912;28;20065;-71
2022/10/17 01:28:46;;;;;;;103.40;97.53;;;;;;;;;;10139008;28;20039;-70
2022/10/17 01:33:43;;;;;;;105.22;99.78;;;;;;;;;;10140019;28;20052;-70
2022/10/17 01:38:44;;;;;;;105.70;100.30;;;;;;;;;;10141835;28;20054;-71
2022/10/17 01:43:45;;;;;;;102.82;97.38;;;;;;;;;;10116907;28;20114;-71
2022/10/17 01:48:42;;;;;;;105.18;99.30;;;;;;;;;;10129875;28;20046;-71
2022/10/17 01:53:43;;;;;;;106.82;100.90;;;;;;;;;;10123402;28;20050;-71
2022/10/17 01:58:42;;;;;;;101.38;96.15;;;;;;;;;;10096770;28;20058;-71
2022/10/17 02:03:41;;;;;;;105.05;99.65;;;;;;;;;;10094028;28;20487;-71
2022/10/17 02:08:42;;;;;;;104.90;99.43;;;;;;;;;;10105733;28;20043;-71
2022/10/17 02:13:57;;;;;;;106.35;100.68;;;;;;;;;;10107408;28;20043;-70
2022/10/17 02:19:12;;;;;;;106.05;100.47;;;;;;;;;;10100398;28;20139;-71
2022/10/17 02:24:26;;;;;;;102.45;97.15;;;;;;;;;;10102203;28;20055;-71
2022/10/17 02:29:25;;;;;;;103.55;98.30;;;;;;;;;;10147969;28;20050;-71
2022/10/17 02:34:24;;;;;;;102.70;97.43;;;;;;;;;;10151066;28;20539;-71
2022/10/17 02:39:21;;;;;;;107.82;102.20;;;;;;;;;;10147149;28;20038;-71
2022/10/17 02:44:18;;;;;;;105.00;99.32;;;;;;;;;;10114234;28;20047;-71
2022/10/17 02:49:22;;;;;;;102.35;97.22;;;;;;;;;;10098266;28;20054;-71
2022/10/17 02:54:40;;;;;;;98.40;93.43;;;;;;;;;;10107152;28;20053;-71
2022/10/17 02:59:37;;;;;;;98.32;93.18;;;;;;;;;;10104394;28;20049;-71
2022/10/17 03:04:34;;;;;;;101.88;96.57;;;;;;;;;;10146780;28;20053;-71
2022/10/17 03:09:30;;;;;;;100.93;95.72;;;;;;;;;;10116863;28;20042;-71
2022/10/17 03:14:26;;;;;;;100.90;94.97;;;;;;;;;;10142805;28;20046;-71
2022/10/17 03:19:22;;;;;;;102.32;97.00;;;;;;;;;;10098468;28;20051;-71
2022/10/17 03:24:18;;;;;;;94.03;89.07;;;;;;;;;;10091860;28;20050;-71
2022/10/17 03:29:15;;;;;;;96.55;91.47;;;;;;;;;;10140601;28;20057;-70
2022/10/17 03:34:11;;;;;;;91.70;86.93;;;;;;;;;;10111879;28;20050;-71
2022/10/17 03:39:07;;;;;;;98.55;93.15;;;;;;;;;;10104038;28;20571;-72
2022/10/17 03:44:04;;;;;;;97.85;93.05;;;;;;;;;;10135848;28;20046;-70
2022/10/17 03:49:00;;;;;;;94.93;90.03;;;;;;;;;;10149507;28;20054;-69
2022/10/17 03:53:56;;;;;;;96.18;91.18;;;;;;;;;;10133596;28;20046;-70
2022/10/17 03:58:53;;;;;;;95.90;91.03;;;;;;;;;;10159471;28;20049;-69
2022/10/17 04:03:51;;;;;;;94.90;90.13;;;;;;;;;;10107270;28;20071;-70
2022/10/17 04:08:48;;;;;;;98.40;93.43;;;;;;;;;;10091169;28;20074;-67
2022/10/17 04:13:45;;;;;;;99.95;94.82;;;;;;;;;;10138360;28;20049;-67
2022/10/17 04:18:41;;;;;;;101.30;96.20;;;;;;;;;;10137871;28;20050;-68
2022/10/17 04:23:38;;;;;;;101.13;95.93;;;;;;;;;;10116749;28;20050;-68
2022/10/17 04:28:34;;;;;;;98.57;93.57;;;;;;;;;;10109160;28;20105;-69
2022/10/17 04:33:31;;;;;;;98.15;93.15;;;;;;;;;;10123731;28;20047;-69
2022/10/17 04:38:28;;;;;;;104.03;98.75;;;;;;;;;;10141212;28;20056;-68
2022/10/17 04:43:25;;;;;;;97.88;92.85;;;;;;;;;;10125279;28;20408;-68
2022/10/17 04:48:21;;;;;;;100.72;95.60;;;;;;;;;;10130983;28;20054;-68
2022/10/17 04:53:18;;;;;;;100.38;94.82;;;;;;;;;;10107221;28;20118;-68
2022/10/17 04:58:14;;;;;;;104.85;99.03;;;;;;;;;;10094335;28;20039;-68
2022/10/17 05:03:10;;;;;;;104.25;98.68;;;;;;;;;;10110657;28;20039;-68
2022/10/17 05:08:07;;;;;;;102.70;97.25;;;;;;;;;;10097484;28;20055;-68
2022/10/17 05:13:04;;;;;;;104.53;99.03;;;;;;;;;;10111808;28;20046;-68
2022/10/17 05:18:00;;;;;;;106.45;100.85;;;;;;;;;;10114026;28;20050;-68
2022/10/17 05:23:00;;;;;;;107.13;101.45;;;;;;;;;;10116729;28;20047;-68
2022/10/17 05:27:56;;;;;;;102.72;97.28;;;;;;;;;;10138850;28;20046;-69
2022/10/17 05:32:53;;;;;;;101.43;95.70;;;;;;;;;;10119908;28;20069;-68
2022/10/17 05:37:50;;;;;;;110.25;104.35;;;;;;;;;;10106755;28;20077;-69
2022/10/17 05:42:47;;;;;;;110.70;104.80;;;;;;;;;;10112231;28;20139;-68
2022/10/17 05:47:43;;;;;;;112.53;106.40;;;;;;;;;;10110950;28;20133;-68
2022/10/17 05:52:39;;;;;;;107.47;101.78;;;;;;;;;;10099352;28;20057;-70
2022/10/17 05:57:40;;;;;;;108.85;103.10;;;;;;;;;;10098184;28;20047;-68
2022/10/17 06:02:36;;;;;;;114.65;108.57;;;;;;;;;;10108822;28;20054;-68
2022/10/17 06:07:32;;;;;;;115.38;108.85;;;;;;;;;;10106817;28;20058;-68
2022/10/17 06:12:29;;;;;;;112.60;106.45;;;;;;;;;;10111221;28;20046;-69
2022/10/17 06:17:27;;;;;;;114.05;107.78;;;;;;;;;;10133671;28;20077;-69
2022/10/17 06:22:23;;;;;;;114.15;107.60;;;;;;;;;;10149156;28;20405;-69
2022/10/17 06:27:19;;;;;;;117.55;111.35;;;;;;;;;;10141900;28;20123;-69
2022/10/17 06:32:16;;;;;;;114.63;108.43;;;;;;;;;;10110857;28;20058;-69
2022/10/17 06:37:12;;;;;;;120.90;114.40;;;;;;;;;;10110771;28;20501;-69
2022/10/17 06:42:08;;;;;;;122.07;115.35;;;;;;;;;;10101769;28;20070;-69
2022/10/17 06:47:04;;;;;;;115.78;109.53;;;;;;;;;;10088289;28;20047;-69
2022/10/17 06:52:01;;;;;;;119.05;112.13;;;;;;;;;;10100204;28;20070;-69
2022/10/17 06:56:57;;;;;;;118.82;112.28;;;;;;;;;;10099530;28;20038;-69
2022/10/17 07:01:53;;;;;;;119.07;112.28;;;;;;;;;;10109536;28;20420;-69
2022/10/17 07:06:49;;;;;;;122.45;115.65;;;;;;;;;;10118023;28;20047;-69
2022/10/17 07:11:46;;;;;;;123.93;117.15;;;;;;;;;;10149286;28;20077;-69
2022/10/17 07:16:42;;;;;;;122.97;116.35;;;;;;;;;;10154177;28;20045;-69
2022/10/17 07:21:38;;;;;;;124.53;117.82;;;;;;;;;;10142735;28;20049;-69
2022/10/17 07:26:34;;;;;;;127.22;120.25;;;;;;;;;;10149283;28;20046;-69
2022/10/17 07:31:31;;;;;;;124.18;117.57;;;;;;;;;;10145867;28;20051;-69
2022/10/17 07:36:27;;;;;;;121.40;114.43;;;;;;;;;;10151383;28;20035;-69
2022/10/17 07:41:24;;;;;;;116.25;109.90;;;;;;;;;;10145600;28;20046;-69
2022/10/17 07:46:20;;;;;;;103.50;98.10;;;;;;;;;;10143655;28;20054;-69
2022/10/17 07:51:18;;;;;;;94.50;89.60;;;;;;;;;;10151531;28;20057;-69
2022/10/17 07:56:15;;;;;;;91.43;86.68;;;;;;;;;;10141090;28;20045;-69
2022/10/17 08:01:13;;;;;;;91.47;86.70;;;;;;;;;;10153505;28;20037;-69
2022/10/17 08:06:11;;;;;;;97.00;91.72;;;;;;;;;;10147883;28;20050;-69
2022/10/17 08:11:09;;;;;;;86.43;81.72;;;;;;;;;;10153556;28;20526;-69
2022/10/17 08:16:06;;;;;;;78.85;74.65;;;;;;;;;;10150725;28;20046;-69
2022/10/17 08:21:07;;;;;;;74.13;70.20;;;;;;;;;;10148860;28;20043;-70
2022/10/17 08:26:05;;;;;;;67.97;64.20;;;;;;;;;;10134491;28;20054;-70
2022/10/17 08:31:05;;;;;;;61.35;58.05;;;;;;;;;;10151146;28;20050;-69
2022/10/17 08:36:03;;;;;;;64.80;61.08;;;;;;;;;;10140239;28;20050;-69
2022/10/17 08:41:00;;;;;;;64.90;61.17;;;;;;;;;;10144467;28;20046;-69
2022/10/17 08:45:59;;;;;;;60.22;56.92;;;;;;;;;;10140928;28;20046;-70
2022/10/17 08:50:58;;;;;;;58.63;55.33;;;;;;;;;;10113945;28;20042;-69
2022/10/17 08:55:54;;;;;;;59.95;56.67;;;;;;;;;;10127602;28;20425;-70
2022/10/17 09:00:59;;;;;;;60.00;56.63;;;;;;;;;;10135803;28;20042;-69
2022/10/17 09:06:02;;;;;;;59.55;56.15;;;;;;;;;;10131044;28;20536;-70
2022/10/17 09:10:58;;;;;;;52.97;50.10;;;;;;;;;;10102440;28;20417;-69
2022/10/17 09:16:09;;;;;;;48.60;45.15;;;;;;;;;;10114625;28;20042;-69
2022/10/17 09:21:16;;;;;;;45.88;43.28;;;;;;;;;;10145382;28;20047;-69
2022/10/17 09:26:13;;;;;;;45.88;43.05;;;;;;;;;;10127993;28;20047;-69
2022/10/17 09:31:19;;;;;;;40.42;37.97;;;;;;;;;;10139321;28;20624;-69
2022/10/17 09:36:17;;;;;;;41.17;38.85;;;;;;;;;;10141588;28;20201;-69
2022/10/17 09:41:19;;;;;;;41.67;39.33;;;;;;;;;;10140240;28;20035;-70
2022/10/17 09:46:37;;;;;;;41.75;38.97;;;;;;;;;;10136879;28;20076;-69
2022/10/17 09:51:36;;;;;;;44.45;41.92;;;;;;;;;;10147298;28;20046;-70
2022/10/17 09:56:52;;;;;;;46.30;43.58;;;;;;;;;;10154388;28;20043;-69
2022/10/17 10:01:52;;;;;;;44.72;42.08;;;;;;;;;;10153032;28;20045;-69
2022/10/17 10:07:02;;;;;;;44.67;41.78;;;;;;;;;;10140242;28;20043;-70
2022/10/17 10:12:00;;;;;;;43.25;40.55;;;;;;;;;;10149488;28;20535;-70
2022/10/17 10:16:57;;;;;;;39.15;36.95;;;;;;;;;;10150995;28;20668;-69
2022/10/17 10:21:54;;;;;;;40.78;38.28;;;;;;;;;;10133499;28;20039;-69
2022/10/17 10:26:53;;;;;;;38.42;36.33;;;;;;;;;;10104715;28;20059;-70
2022/10/17 10:31:50;;;;;;;35.55;33.45;;;;;;;;;;10112444;28;20046;-70
2022/10/17 10:37:00;;;;;;;37.67;35.45;;;;;;;;;;10109396;28;20053;-70
2022/10/17 10:41:57;;;;;;;37.35;34.92;;;;;;;;;;10127398;28;20054;-69
2022/10/17 10:47:06;;;;;;;32.25;30.35;;;;;;;;;;10147949;28;20046;-69
2022/10/17 10:52:03;;;;;;;30.70;28.80;;;;;;;;;;10147305;28;20043;-69
2022/10/17 10:57:02;;;;;;;31.75;29.85;;;;;;;;;;10154644;28;20038;-69
2022/10/17 11:02:09;;;;;;;27.65;26.05;;;;;;;;;;10136860;28;20062;-69
2022/10/17 11:07:19;;;;;;;28.48;26.67;;;;;;;;;;10149982;28;20050;-69
2022/10/17 11:12:21;;;;;;;32.17;30.08;;;;;;;;;;10142235;28;20050;-69
2022/10/17 11:17:18;;;;;;;32.10;30.20;;;;;;;;;;10156610;28;20504;-69
2022/10/17 11:22:20;;;;;;;33.60;31.50;;;;;;;;;;10145306;28;20555;-69
2022/10/17 11:27:23;;;;;;;33.28;31.02;;;;;;;;;;10149795;28;20502;-70
2022/10/17 11:32:29;;;;;;;29.75;27.67;;;;;;;;;;10144976;28;20046;-68
2022/10/17 11:37:33;;;;;;;30.40;28.52;;;;;;;;;;10155557;28;20512;-69
2022/10/17 11:42:29;;;;;;;;;;;;;;;;;;10146708;28;20046;-69
2022/10/17 11:47:43;;;;;;;23.15;21.60;;;;;;;;;;10145664;28;19972;-69
2022/10/17 11:52:41;;;;;;;22.25;20.85;;;;;;;;;;10150519;28;20046;-70
2022/10/17 11:57:51;;;;;;;20.98;19.27;;;;;;;;;;10135973;28;20403;-69
2022/10/17 12:02:47;;;;;;;20.73;19.25;;;;;;;;;;10160760;28;20046;-69
2022/10/17 12:07:50;;;;;;;18.17;16.92;;;;;;;;;;10139313;28;20042;-69
2022/10/17 12:12:48;;;;;;;36.20;33.08;;;;;;;;;;10154666;28;20042;-67
2022/10/17 12:17:54;;;;;;;54.90;51.38;;;;;;;;;;10149663;28;20610;-68
2022/10/17 12:22:53;;;;;;;86.90;82.15;;;;;;;;;;10151231;28;20516;-68
2022/10/17 12:27:49;;;;;;;88.05;82.43;;;;;;;;;;10144595;28;20054;-69
2022/10/17 12:32:53;;;;;;;105.18;98.57;;;;;;;;;;10116926;28;20050;-69
2022/10/17 12:38:12;;;;;;;106.80;100.20;;;;;;;;;;10103178;28;20497;-69
2022/10/17 12:43:31;;;;;;;108.43;101.72;;;;;;;;;;10119962;28;20042;-69
2022/10/17 12:48:37;;;;;;;104.82;98.07;;;;;;;;;;10140093;28;20507;-68
2022/10/17 12:53:48;;;;;;;107.25;100.32;;;;;;;;;;10123632;28;20073;-68
2022/10/17 12:58:45;;;;;;;110.95;103.72;;;;;;;;;;10104247;28;20411;-68
2022/10/17 13:03:43;;;;;;;116.20;109.05;;;;;;;;;;10099366;28;20045;-69
2022/10/17 13:08:42;;;;;;;113.07;105.75;;;;;;;;;;10126924;28;20054;-68
2022/10/17 13:13:44;;;;;;;109.35;102.45;;;;;;;;;;10153073;28;20058;-68
2022/10/17 13:18:40;;;;;;;108.30;101.07;;;;;;;;;;10142013;28;20050;-69
2022/10/17 13:23:36;;;;;;;95.03;88.28;;;;;;;;;;10141243;28;20049;-67
2022/10/17 13:28:33;;;;;;;84.03;77.80;;;;;;;;;;10149226;28;20041;-66
2022/10/17 13:33:37;;;;;;;93.07;85.87;;;;;;;;;;10128175;28;20043;-67
2022/10/17 13:38:35;;;;;;;88.68;81.97;;;;;;;;;;10118355;28;20386;-67
2022/10/17 13:43:37;;;;;;;87.18;80.57;;;;;;;;;;10110640;28;20048;-67
2022/10/17 13:48:35;;;;;;;85.70;79.10;;;;;;;;;;10111295;28;20452;-67
2022/10/17 13:53:40;;;;;;;85.75;78.88;;;;;;;;;;10110891;28;20054;-67
2022/10/17 13:58:44;;;;;;;87.85;81.15;;;;;;;;;;10138199;28;20050;-67
2022/10/17 14:03:41;;;;;;;91.32;84.53;;;;;;;;;;10149957;28;20038;-67
2022/10/17 14:08:49;;;;;;;94.90;87.57;;;;;;;;;;10159238;28;20104;-67
2022/10/17 14:13:49;;;;;;;89.82;82.93;;;;;;;;;;10148228;28;20057;-67
2022/10/17 14:18:48;;;;;;;91.85;85.03;;;;;;;;;;10145683;28;20046;-69
2022/10/17 14:23:44;;;;;;;90.60;83.75;;;;;;;;;;10156594;28;20050;-69
2022/10/17 14:28:42;;;;;;;92.07;85.03;;;;;;;;;;10124431;28;20046;-69
2022/10/17 14:33:42;;;;;;;90.32;83.53;;;;;;;;;;10100807;28;20051;-67
2022/10/17 14:38:40;;;;;;;;;;;;;;;;;;10093841;28;20061;-67
2022/10/17 14:43:37;;;;;;;88.75;82.03;;;;;;;;;;10116836;28;19930;-69
2022/10/17 14:48:33;;;;;;;88.45;81.65;;;;;;;;;;10106855;28;20058;-69
2022/10/17 14:53:29;;;;;;;82.57;75.68;;;;;;;;;;10108677;28;20043;-69
2022/10/17 14:58:27;;;;;;;81.53;74.82;;;;;;;;;;10134641;28;20041;-68
2022/10/17 15:03:23;;;;;;;82.00;75.25;;;;;;;;;;10153171;28;20057;-69
2022/10/17 15:08:21;;;;;;;78.47;72.10;;;;;;;;;;10142121;28;20046;-70
2022/10/17 15:13:17;;;;;;;76.35;70.03;;;;;;;;;;10152593;28;20073;-71
2022/10/17 15:18:33;;;;;;;77.80;71.35;;;;;;;;;;10141687;28;20041;-68
2022/10/17 15:23:30;;;;;;;74.63;68.03;;;;;;;;;;10153617;28;20042;-68
2022/10/17 15:28:26;;;;;;;76.18;69.90;;;;;;;;;;10140832;28;20058;-68
2022/10/17 15:33:22;;;;;;;74.10;67.85;;;;;;;;;;10144324;28;20125;-69
2022/10/17 15:38:19;;;;;;;71.20;64.50;;;;;;;;;;10158146;28;20049;-69
2022/10/17 15:43:15;;;;;;;67.00;60.95;;;;;;;;;;10147295;28;20085;-68
2022/10/17 15:48:17;;;;;;;71.78;65.60;;;;;;;;;;10151052;28;20056;-68
2022/10/17 15:53:14;;;;;;;69.00;62.88;;;;;;;;;;10147948;28;20497;-69
2022/10/17 15:58:13;;;;;;;67.60;61.80;;;;;;;;;;10141057;28;20042;-69
2022/10/17 16:03:10;;;;;;;66.70;61.00;;;;;;;;;;10150599;28;20061;-69
2022/10/17 16:08:06;;;;;;;66.13;60.22;;;;;;;;;;10151428;28;20054;-68
2022/10/17 16:13:02;;;;;;;63.15;57.42;;;;;;;;;;10147246;28;20050;-69
2022/10/17 16:17:59;;;;;;;65.45;59.95;;;;;;;;;;10126397;28;20050;-69
2022/10/17 16:23:02;;;;;;;62.83;57.33;;;;;;;;;;10095877;28;20043;-68
2022/10/17 16:27:59;;;;;;;63.13;57.72;;;;;;;;;;10125658;28;20121;-68
2022/10/17 16:32:55;;;;;;;62.33;56.88;;;;;;;;;;10123253;28;20065;-68
2022/10/17 16:37:52;;;;;;;60.75;55.35;;;;;;;;;;10131519;28;20048;-68
2022/10/17 16:42:48;;;;;;;59.65;53.97;;;;;;;;;;10138912;28;20046;-69
2022/10/17 16:47:45;;;;;;;59.70;54.33;;;;;;;;;;10146857;28;20657;-69
2022/10/17 16:52:42;;;;;;;59.20;53.85;;;;;;;;;;10147442;28;20546;-68
2022/10/17 16:57:38;;;;;;;58.88;53.53;;;;;;;;;;10152856;28;20046;-68
2022/10/17 17:02:34;;;;;;;60.58;55.08;;;;;;;;;;10150754;28;20049;-69
2022/10/17 17:07:32;;;;;;;63.65;58.15;;;;;;;;;;10142514;28;20465;-69
2022/10/17 17:12:30;;;;;;;66.53;60.42;;;;;;;;;;10117336;28;20051;-68
2022/10/17 17:17:28;;;;;;;61.00;55.60;;;;;;;;;;10119455;28;20061;-69
2022/10/17 17:22:39;;;;;;;;;;;;;;;;;;10142943;28;20046;-68
2022/10/17 17:27:36;;;;;;;67.32;61.53;;;;;;;;;;10141493;28;20498;-68
2022/10/17 17:32:32;;;;;;;66.97;61.17;;;;;;;;;;10145420;28;20057;-68
2022/10/17 17:37:28;;;;;;;69.00;63.00;;;;;;;;;;10135556;28;20513;-68
2022/10/17 17:42:25;;;;;;;70.82;64.65;;;;;;;;;;10126181;28;20050;-69
2022/10/17 17:47:21;;;;;;;70.35;64.13;;;;;;;;;;10135985;28;20062;-69
2022/10/17 17:52:18;;;;;;;73.20;66.70;;;;;;;;;;10125458;28;20050;-68
2022/10/17 17:57:14;;;;;;;72.95;66.32;;;;;;;;;;10128169;28;20436;-68
2022/10/17 18:02:10;;;;;;;67.43;61.53;;;;;;;;;;10130659;28;20542;-68
2022/10/17 18:07:06;;;;;;;70.65;64.30;;;;;;;;;;10120526;28;20142;-68
2022/10/17 18:12:03;;;;;;;72.15;65.25;;;;;;;;;;10111598;28;20053;-68
2022/10/17 18:16:59;;;;;;;65.80;59.85;;;;;;;;;;10110090;28;20062;-67
2022/10/17 18:21:55;;;;;;;64.80;58.72;;;;;;;;;;10138983;28;20652;-68
2022/10/17 18:26:54;;;;;;;66.65;60.65;;;;;;;;;;10103620;28;20496;-68
2022/10/17 18:31:51;;;;;;;64.40;58.45;;;;;;;;;;10111341;28;20408;-68
2022/10/17 18:36:47;;;;;;;64.10;58.28;;;;;;;;;;10124991;28;20060;-68
2022/10/17 18:41:43;;;;;;;63.13;57.40;;;;;;;;;;10155719;28;20117;-68
2022/10/17 18:46:40;;;;;;;63.78;57.95;;;;;;;;;;10162377;28;20042;-69
2022/10/17 18:51:36;;;;;;;62.67;56.97;;;;;;;;;;10158793;28;20065;-68
2022/10/17 18:56:33;;;;;;;64.32;58.42;;;;;;;;;;10150698;28;20072;-69
2022/10/17 19:01:29;;;;;;;62.40;56.70;;;;;;;;;;10144784;28;20048;-68
2022/10/17 19:06:27;;;;;;;60.13;54.33;;;;;;;;;;10137747;28;20512;-68
2022/10/17 19:11:24;;;;;;;58.70;53.50;;;;;;;;;;10119626;28;20038;-68
2022/10/17 19:16:27;;;;;;;61.85;56.20;;;;;;;;;;10147148;28;20044;-68
2022/10/17 19:21:24;;;;;;;59.50;54.20;;;;;;;;;;10145876;28;20049;-69
2022/10/17 19:26:21;;;;;;;59.33;53.92;;;;;;;;;;10147421;28;20046;-68
2022/10/17 19:31:21;;;;;;;54.38;49.67;;;;;;;;;;10152271;28;20542;-68
2022/10/17 19:36:23;;;;;;;54.70;50.10;;;;;;;;;;10146133;28;20074;-68
2022/10/17 19:41:25;;;;;;;56.83;52.03;;;;;;;;;;10136873;28;20128;-69
2022/10/17 19:46:23;;;;;;;57.42;52.75;;;;;;;;;;10133976;28;20046;-69
2022/10/17 19:51:23;;;;;;;58.63;53.78;;;;;;;;;;10147838;28;20042;-69
2022/10/17 19:56:20;;;;;;;57.60;53.05;;;;;;;;;;10140057;28;20086;-69
2022/10/17 20:01:19;;;;;;;61.20;56.50;;;;;;;;;;10137055;28;20082;-71
2022/10/17 20:06:15;;;;;;;59.97;55.17;;;;;;;;;;10102844;28;20171;-67
2022/10/17 20:11:13;;;;;;;65.43;60.05;;;;;;;;;;10121484;28;20053;-67
2022/10/17 20:16:11;;;;;;;66.97;62.00;;;;;;;;;;10148955;28;20060;-68
2022/10/17 20:21:09;;;;;;;69.53;64.45;;;;;;;;;;10101613;28;20053;-69
2022/10/17 20:26:07;;;;;;;71.05;65.90;;;;;;;;;;10106259;28;20490;-69
2022/10/17 20:31:23;;;;;;;72.80;67.60;;;;;;;;;;10106040;28;20043;-69
2022/10/17 20:36:22;;;;;;;76.53;71.20;;;;;;;;;;10103753;28;20050;-69
2022/10/17 20:41:18;;;;;;;74.95;69.22;;;;;;;;;;10100093;28;20051;-69
2022/10/17 20:46:15;;;;;;;70.85;65.72;;;;;;;;;;10102824;28;20049;-68
2022/10/17 20:51:30;;;;;;;68.68;63.67;;;;;;;;;;10118116;28;20043;-68
2022/10/17 20:56:28;;;;;;;72.97;67.88;;;;;;;;;;10144220;28;20141;-68
2022/10/17 21:01:24;;;;;;;69.00;64.00;;;;;;;;;;10141071;28;20050;-69
2022/10/17 21:06:21;;;;;;;71.43;66.32;;;;;;;;;;10130613;28;20051;-69
2022/10/17 21:11:19;;;;;;;71.55;66.65;;;;;;;;;;10117463;28;20049;-69
2022/10/17 21:16:16;;;;;;;71.30;66.35;;;;;;;;;;10111818;28;20073;-68
2022/10/17 21:21:14;;;;;;;78.18;72.78;;;;;;;;;;10146786;28;20058;-69
2022/10/17 21:26:11;;;;;;;81.55;75.97;;;;;;;;;;10137874;28;20047;-69
2022/10/17 21:31:07;;;;;;;82.95;77.28;;;;;;;;;;10137496;28;20051;-68
2022/10/17 21:36:04;;;;;;;82.95;77.53;;;;;;;;;;10140144;28;20050;-69
2022/10/17 21:41:00;;;;;;;79.30;74.10;;;;;;;;;;10130667;28;20054;-68
2022/10/17 21:45:59;;;;;;;78.78;73.47;;;;;;;;;;10144587;28;20651;-69
2022/10/17 21:50:57;;;;;;;78.30;72.97;;;;;;;;;;10140725;28;20043;-68
2022/10/17 21:55:53;;;;;;;80.05;74.55;;;;;;;;;;10117176;28;20608;-68
2022/10/17 22:00:50;;;;;;;76.70;71.50;;;;;;;;;;10124411;28;20397;-69
2022/10/17 22:05:46;;;;;;;74.35;69.22;;;;;;;;;;10145099;28;20051;-67
2022/10/17 22:10:42;;;;;;;80.00;74.18;;;;;;;;;;10140683;28;20117;-68
2022/10/17 22:15:38;;;;;;;78.22;72.25;;;;;;;;;;10140949;28;20039;-69
2022/10/17 22:20:35;;;;;;;81.32;75.28;;;;;;;;;;10115474;28;20046;-69
2022/10/17 22:25:31;;;;;;;79.70;74.00;;;;;;;;;;10106380;28;20043;-69
2022/10/17 22:30:27;;;;;;;80.15;74.43;;;;;;;;;;10097769;28;20054;-68
2022/10/17 22:35:23;;;;;;;83.28;77.03;;;;;;;;;;10110484;28;20386;-69
2022/10/17 22:40:19;;;;;;;81.85;75.88;;;;;;;;;;10115677;28;20066;-69
2022/10/17 22:45:16;;;;;;;79.13;73.38;;;;;;;;;;10120541;28;20480;-68
2022/10/17 22:50:12;;;;;;;82.32;75.82;;;;;;;;;;10117057;28;20062;-68
2022/10/17 22:55:08;;;;;;;81.95;75.85;;;;;;;;;;10114948;28;20055;-69
2022/10/17 23:00:05;;;;;;;79.20;73.40;;;;;;;;;;10113112;28;20061;-69
2022/10/17 23:05:02;;;;;;;81.85;75.65;;;;;;;;;;10115896;28;20051;-69
2022/10/17 23:09:59;;;;;;;81.38;75.13;;;;;;;;;;10128788;28;20046;-69
2022/10/17 23:14:55;;;;;;;77.30;71.30;;;;;;;;;;10110498;28;20050;-68
2022/10/17 23:19:51;;;;;;;75.90;69.93;;;;;;;;;;10142196;28;20065;-68
2022/10/17 23:24:52;;;;;;;75.07;68.90;;;;;;;;;;10136571;28;20038;-70
2022/10/17 23:29:49;;;;;;;77.30;71.30;;;;;;;;;;10149992;28;20063;-70
2022/10/17 23:34:45;;;;;;;79.95;73.88;;;;;;;;;;10111101;28;20059;-70
2022/10/17 23:39:41;;;;;;;80.22;73.80;;;;;;;;;;10118724;28;20039;-68
2022/10/17 23:44:37;;;;;;;80.25;74.25;;;;;;;;;;10116171;28;20047;-70
2022/10/17 23:49:34;;;;;;;82.57;76.25;;;;;;;;;;10105714;28;20509;-70
2022/10/17 23:54:30;;;;;;;82.00;75.97;;;;;;;;;;10100865;28;20132;-70
2022/10/17 23:59:26;;;;;;;82.88;76.57;;;;;;;;;;10106233;28;20079;-70
